Time;durP1;ratioP1;P1;durP2;ratioP2;P2;SDS_P1;SDS_P2;PMS_P1;PMS_P2;Temp;Humidity;BMP_temperature;BMP_pressure;BME280_temperature;BME280_humidity;BME280_pressure;Samples;Min_cycle;Max_cycle;Signal;HPM_P1;HPM_P2
2021/11/20 00:07:02;;;;;;;6.70;4.50;;;;;;;9.48;84.65;99501.28;435080;1312;143543;-59
2021/11/20 00:17:09;;;;;;;7.70;5.70;;;;;;;9.52;84.49;99516.21;423319;1312;142139;-59
2021/11/20 00:27:22;;;;;;;8.50;4.40;;;;;;;9.51;84.28;99543.18;427238;1312;144584;-64
2021/11/20 00:37:29;;;;;;;8.40;5.70;;;;;;;9.54;84.18;99531.71;418927;1311;143061;-63
2021/11/20 00:47:35;;;;;;;4.80;3.80;;;;;;;9.55;83.97;99503.69;430633;1312;142407;-62
2021/11/20 00:57:43;;;;;;;8.10;3.50;;;;;;;9.58;83.71;99486.16;433891;1310;142454;-62
2021/11/20 01:07:50;;;;;;;4.00;3.60;;;;;;;9.62;83.73;99492.08;433925;1310;141915;-62
2021/11/20 01:17:57;;;;;;;5.20;3.80;;;;;;;9.62;83.58;99494.15;433215;1312;143809;-63
2021/11/20 01:28:04;;;;;;;5.20;3.60;;;;;;;9.64;83.57;99494.91;429857;1312;198971;-62
2021/11/20 01:38:11;;;;;;;4.40;3.30;;;;;;;9.63;83.43;99497.77;420713;1311;141760;-63
2021/11/20 01:48:36;;;;;;;6.90;3.00;;;;;;;9.63;83.40;99509.84;418429;1312;141539;-63
2021/11/20 01:58:51;;;;;;;3.50;2.70;;;;;;;9.62;83.34;99505.15;434368;1309;141726;-62
2021/11/20 02:09:02;;;;;;;4.10;2.90;;;;;;;9.65;83.14;99502.89;427717;1311;142575;-63
2021/11/20 02:19:14;;;;;;;3.00;2.40;;;;;;;9.68;82.87;99513.38;426294;1311;141838;-64
2021/11/20 02:29:22;;;;;;;5.20;2.30;;;;;;;9.68;82.72;99527.88;432835;1309;142423;-64
2021/11/20 02:39:32;;;;;;;4.20;2.80;;;;;;;9.66;82.56;99526.77;433145;1307;142216;-63
2021/11/20 02:49:39;;;;;;;4.60;2.10;;;;;;;9.66;82.14;99542.84;429590;1312;142068;-63
2021/11/20 02:59:45;;;;;;;3.70;2.00;;;;;;;9.63;81.98;99530.61;422016;1312;141913;-62
2021/11/20 03:09:51;;;;;;;3.10;1.70;;;;;;;9.60;81.79;99528.58;424171;1313;144311;-63
2021/11/20 03:19:58;;;;;;;2.70;1.90;;;;;;;9.54;81.47;99514.76;430677;1309;141473;-62
2021/11/20 03:30:06;;;;;;;5.10;3.00;;;;;;;9.55;81.09;99512.56;419558;1312;337107;-62
2021/11/20 03:40:16;;;;;;;4.60;2.00;;;;;;;9.56;81.03;99521.43;435041;1310;142859;-62
2021/11/20 03:50:24;;;;;;;4.30;2.30;;;;;;;9.59;80.76;99532.95;435188;1307;142348;-63
2021/11/20 04:00:34;;;;;;;3.40;2.00;;;;;;;9.66;80.48;99537.43;421315;1312;142266;-61
2021/11/20 04:10:40;;;;;;;5.90;2.20;;;;;;;9.66;80.31;99555.58;434761;1309;154362;-62
2021/11/20 04:20:46;;;;;;;3.60;1.70;;;;;;;9.67;80.35;99566.72;433217;1312;144436;-62
2021/11/20 04:30:54;;;;;;;4.30;2.60;;;;;;;9.69;80.27;99561.91;433484;1312;141812;-63
2021/11/20 04:41:00;;;;;;;5.20;2.10;;;;;;;9.69;79.71;99573.97;432603;1312;142119;-61
2021/11/20 04:51:08;;;;;;;4.20;2.40;;;;;;;9.69;79.78;99580.09;433220;1307;141925;-60
2021/11/20 05:01:14;;;;;;;4.30;2.20;;;;;;;9.65;79.47;99586.98;434431;1312;142089;-61
2021/11/20 05:11:21;;;;;;;3.00;2.30;;;;;;;9.56;79.29;99597.09;435061;1310;143326;-61
2021/11/20 05:21:27;;;;;;;4.10;1.80;;;;;;;9.38;79.00;99587.33;433247;1312;142064;-60
2021/11/20 05:31:34;;;;;;;3.20;2.70;;;;;;;9.23;78.89;99592.91;435147;1307;141637;-61
2021/11/20 05:41:41;;;;;;;4.10;2.20;;;;;;;9.13;79.08;99590.85;433250;1310;141868;-62
2021/11/20 05:51:48;;;;;;;4.90;3.20;;;;;;;9.12;79.26;99596.69;434496;1311;143312;-61
2021/11/20 06:01:55;;;;;;;2.90;2.50;;;;;;;9.05;79.23;99612.98;435103;1312;142196;-61
2021/11/20 06:12:01;;;;;;;5.00;2.40;;;;;;;9.08;79.39;99622.23;433275;1312;142351;-61
2021/11/20 06:22:10;;;;;;;4.70;2.80;;;;;;;9.16;78.86;99627.70;434009;1312;143297;-61
2021/11/20 06:32:16;;;;;;;3.00;2.20;;;;;;;9.25;78.56;99649.55;434835;1309;142450;-61
2021/11/20 06:42:23;;;;;;;2.90;2.50;;;;;;;9.31;78.57;99679.63;424249;1310;142181;-62
2021/11/20 06:52:30;;;;;;;4.80;2.60;;;;;;;9.37;78.53;99685.91;432258;1312;143159;-61
2021/11/20 07:02:38;;;;;;;3.40;1.90;;;;;;;9.45;78.23;99697.70;430684;1312;140635;-61
2021/11/20 07:12:46;;;;;;;4.00;2.50;;;;;;;9.54;78.05;99711.67;435118;1310;142682;-61
2021/11/20 07:22:52;;;;;;;5.80;3.30;;;;;;;10.28;77.44;99709.95;435072;1311;142231;-62
2021/11/20 07:32:58;;;;;;;2.90;2.40;;;;;;;10.69;75.96;99715.56;434133;1310;142224;-60
2021/11/20 07:43:05;;;;;;;5.30;2.60;;;;;;;10.67;75.97;99709.23;433451;1312;142498;-62
2021/11/20 07:53:12;;;;;;;5.70;2.50;;;;;;;10.68;75.65;99726.81;433970;1309;142401;-62
2021/11/20 08:03:19;;;;;;;5.60;3.00;;;;;;;10.44;75.61;99732.45;433218;1310;142090;-61
2021/11/20 08:13:25;;;;;;;6.80;3.30;;;;;;;10.48;75.92;99723.65;434924;1312;141034;-62
2021/11/20 08:23:32;;;;;;;4.50;3.00;;;;;;;10.81;76.00;99720.25;435035;1312;142915;-62
2021/11/20 08:33:38;;;;;;;6.00;3.10;;;;;;;12.10;74.78;99716.37;433386;1312;142411;-62
2021/11/20 08:43:44;;;;;;;5.50;2.60;;;;;;;12.29;71.82;99732.84;431510;1312;145551;-60
2021/11/20 08:53:52;;;;;;;4.70;2.30;;;;;;;11.71;72.64;99739.93;433342;1312;142752;-61
2021/11/20 09:04:10;;;;;;;3.10;2.50;;;;;;;12.80;71.04;99738.66;434048;1311;142230;-64
2021/11/20 09:14:21;;;;;;;2.90;2.20;;;;;;;14.39;69.14;99746.55;424562;1312;142366;-62
2021/11/20 09:24:30;;;;;;;5.20;2.20;;;;;;;13.82;65.80;99748.34;430357;1312;141815;-65
2021/11/20 09:34:56;;;;;;;4.00;2.10;;;;;;;12.37;67.22;99744.65;434825;1310;142220;-62
2021/11/20 09:45:07;;;;;;;4.70;1.80;;;;;;;12.10;68.56;99754.16;434442;1312;142390;-61
2021/11/20 09:55:17;;;;;;;3.40;1.90;;;;;;;11.61;68.82;99752.11;435133;1312;142274;-61
2021/11/20 10:05:27;;;;;;;2.90;2.00;;;;;;;11.59;69.41;99735.41;431108;1312;141933;-63
2021/11/20 10:15:36;;;;;;;4.50;1.90;;;;;;;11.94;69.27;99726.81;434237;1308;142578;-62
2021/11/20 10:26:13;;;;;;;6.50;2.60;;;;;;;12.05;68.95;99720.45;433967;1312;144944;-61
2021/11/20 10:36:26;;;;;;;2.60;1.50;;;;;;;11.89;69.52;99711.14;434286;1312;142355;-64
2021/11/20 10:46:35;;;;;;;3.60;1.40;;;;;;;11.97;69.17;99699.94;435048;1313;141948;-62
2021/11/20 10:57:00;;;;;;;3.60;1.70;;;;;;;11.99;69.16;99698.40;433992;1312;151388;-61
2021/11/20 11:07:12;;;;;;;3.30;1.50;;;;;;;12.10;69.60;99695.90;434742;1312;142473;-62
2021/11/20 11:17:35;;;;;;;4.30;1.80;;;;;;;12.38;69.46;99690.66;433888;1312;142708;-62
2021/11/20 11:28:02;;;;;;;1.90;1.00;;;;;;;12.51;69.22;99674.02;433106;1310;269363;-65
2021/11/20 11:38:45;;;;;;;2.30;1.00;;;;;;;12.35;68.72;99664.39;434564;1312;142453;-64
2021/11/20 11:49:21;;;;;;;2.20;1.20;;;;;;;12.41;68.95;99656.91;434977;1313;143034;-59
2021/11/20 11:59:51;;;;;;;4.80;1.90;;;;;;;12.44;68.49;99653.09;433558;1312;142034;-66
2021/11/20 12:10:17;;;;;;;4.60;2.80;;;;;;;12.31;69.41;99652.92;433961;1317;142168;-66
2021/11/20 12:20:28;;;;;;;7.40;2.80;;;;;;;12.23;70.48;99646.09;433094;1307;141066;-63
2021/11/20 12:31:01;;;;;;;2.10;2.00;;;;;;;12.00;71.15;99630.27;434281;1314;142119;-66
2021/11/20 12:41:18;;;;;;;2.30;2.10;;;;;;;11.53;71.98;99627.81;426292;1308;143340;-66
2021/11/20 12:51:30;;;;;;;7.20;3.00;;;;;;;11.28;72.94;99609.83;424372;1312;143538;-69
2021/11/20 13:01:44;;;;;;;6.60;2.50;;;;;;;11.04;73.75;99599.14;435089;1313;143079;-71
2021/11/20 13:12:07;;;;;;;4.90;2.90;;;;;;;10.91;74.11;99591.77;428900;1313;143223;-68
2021/11/20 13:22:17;;;;;;;4.10;3.80;;;;;;;10.91;74.51;99581.98;427145;1312;141823;-67
2021/11/20 13:32:23;;;;;;;5.10;3.70;;;;;;;10.79;74.76;99568.91;434046;1316;143139;-65
2021/11/20 13:42:36;;;;;;;6.70;3.90;;;;;;;10.78;75.06;99562.64;432170;1310;142799;-66
2021/11/20 13:52:44;;;;;;;6.80;2.70;;;;;;;10.72;75.07;99552.73;432754;1312;141718;-67
2021/11/20 14:02:52;;;;;;;4.20;3.00;;;;;;;10.56;75.12;99541.14;432578;1310;142442;-68
2021/11/20 14:13:03;;;;;;;;;;;;;;;10.20;75.74;99535.49;419623;1313;141474;-60
2021/11/20 14:23:11;;;;;;;5.10;4.60;;;;;;;10.10;76.52;99542.27;433558;1312;131418;-64
2021/11/20 14:33:22;;;;;;;5.30;3.70;;;;;;;9.95;76.96;99535.32;428328;1310;142791;-64
2021/11/20 14:43:30;;;;;;;5.40;4.80;;;;;;;9.88;77.30;99526.83;435721;1310;142200;-62
2021/11/20 14:53:38;;;;;;;9.80;6.50;;;;;;;9.81;77.77;99519.39;435293;1311;141369;-62
2021/11/20 15:03:44;;;;;;;6.60;5.60;;;;;;;9.74;78.04;99513.05;433450;1312;142192;-62
2021/11/20 15:13:52;;;;;;;8.40;6.70;;;;;;;9.68;78.44;99506.88;435478;1309;142174;-62
2021/11/20 15:23:58;;;;;;;8.20;7.40;;;;;;;9.67;78.87;99499.09;427691;1310;141046;-60
2021/11/20 15:34:04;;;;;;;8.40;7.70;;;;;;;9.61;79.16;99491.09;435893;1309;141575;-65
2021/11/20 15:44:10;;;;;;;10.50;9.10;;;;;;;9.46;79.83;99488.34;419116;1306;10002098;-61
2021/11/20 15:54:16;;;;;;;10.60;8.30;;;;;;;9.22;80.66;99485.74;432575;1312;142278;-61
2021/11/20 16:04:24;;;;;;;8.20;7.40;;;;;;;9.13;81.29;99475.99;433064;1309;141908;-60
2021/11/20 16:14:30;;;;;;;8.40;7.60;;;;;;;8.98;81.64;99464.08;428097;1310;142146;-61
2021/11/20 16:24:37;;;;;;;7.10;6.30;;;;;;;8.89;82.32;99454.14;432250;1312;142067;-64
2021/11/20 16:34:44;;;;;;;9.20;8.20;;;;;;;8.88;82.59;99445.84;425302;1312;145277;-60
2021/11/20 16:44:51;;;;;;;9.20;7.70;;;;;;;8.77;82.73;99436.54;425222;1312;142708;-60
2021/11/20 16:55:03;;;;;;;7.40;6.70;;;;;;;8.69;83.30;99428.23;425108;1310;141269;-63
2021/11/20 17:05:10;;;;;;;8.30;7.30;;;;;;;8.62;83.36;99424.64;434144;1309;141282;-61
2021/11/20 17:15:17;;;;;;;8.80;7.80;;;;;;;8.59;83.63;99414.35;434724;1309;141707;-65
2021/11/20 17:25:24;;;;;;;9.90;7.60;;;;;;;8.54;83.68;99404.17;434373;1309;141774;-60
2021/11/20 17:35:30;;;;;;;8.80;7.40;;;;;;;8.56;83.90;99400.59;435105;1312;141767;-65
2021/11/20 17:45:43;;;;;;;9.60;7.80;;;;;;;8.59;83.96;99393.80;426519;1312;140898;-66
2021/11/20 17:55:51;;;;;;;8.70;7.80;;;;;;;8.54;83.97;99381.86;434427;1307;141110;-64
2021/11/20 18:05:59;;;;;;;11.90;9.70;;;;;;;8.46;84.20;99372.17;433259;1310;143208;-62
2021/11/20 18:16:05;;;;;;;9.90;8.90;;;;;;;8.45;84.27;99358.62;433699;1311;141622;-70
2021/11/20 18:26:13;;;;;;;15.30;10.40;;;;;;;8.42;84.33;99349.73;435466;1309;141531;-71
2021/11/20 18:36:19;;;;;;;13.40;11.00;;;;;;;8.39;84.37;99346.77;427100;1310;142611;-64
2021/11/20 18:46:26;;;;;;;14.90;11.20;;;;;;;8.34;84.48;99340.21;419981;1310;141780;-64
2021/11/20 18:56:32;;;;;;;10.70;8.80;;;;;;;8.23;84.53;99327.61;435727;1307;142698;-69
2021/11/20 19:06:38;;;;;;;13.60;8.70;;;;;;;8.16;84.32;99314.77;435267;1307;142764;-65
2021/11/20 19:16:46;;;;;;;16.00;11.20;;;;;;;8.11;84.25;99302.68;435430;1307;142074;-61
2021/11/20 19:26:54;;;;;;;11.40;8.90;;;;;;;8.14;84.01;99295.35;418989;1310;20002013;-59
2021/11/20 19:37:00;;;;;;;9.80;8.70;;;;;;;8.20;83.99;99283.48;435560;1309;142514;-59
2021/11/20 19:47:07;;;;;;;10.50;9.50;;;;;;;8.18;83.93;99273.52;427792;1310;141742;-59
2021/11/20 19:57:13;;;;;;;15.70;10.50;;;;;;;8.29;84.15;99267.45;429105;1309;143903;-60
2021/11/20 20:07:19;;;;;;;18.40;11.10;;;;;;;8.34;83.79;99262.10;434871;1309;145623;-60
2021/11/20 20:17:25;;;;;;;12.00;9.10;;;;;;;8.34;83.83;99250.77;434435;1307;142713;-60
2021/11/20 20:27:31;;;;;;;11.20;9.00;;;;;;;8.29;83.55;99257.69;434435;1309;143169;-59
2021/11/20 20:37:38;;;;;;;13.40;10.60;;;;;;;8.31;83.50;99248.52;428884;1312;141267;-60
2021/11/20 20:47:44;;;;;;;11.00;9.50;;;;;;;8.29;83.49;99235.36;433019;1311;143904;-58
2021/11/20 20:57:51;;;;;;;14.40;10.10;;;;;;;8.24;83.37;99216.46;434303;1309;141579;-61
2021/11/20 21:07:58;;;;;;;12.20;10.50;;;;;;;8.27;83.33;99207.39;434807;1308;143619;-59
2021/11/20 21:18:05;;;;;;;10.10;8.90;;;;;;;8.22;83.50;99200.01;434340;1308;143056;-58
2021/11/20 21:28:11;;;;;;;12.60;10.40;;;;;;;8.22;83.29;99182.26;435344;1306;143307;-59
2021/11/20 21:38:17;;;;;;;11.50;9.20;;;;;;;8.17;83.15;99176.98;435411;1310;143126;-59
2021/11/20 21:48:23;;;;;;;10.00;8.60;;;;;;;8.12;83.15;99173.41;433187;1310;141662;-59
2021/11/20 21:58:29;;;;;;;14.90;9.10;;;;;;;8.07;83.02;99167.45;434259;1312;145119;-59
2021/11/20 22:08:35;;;;;;;12.80;8.90;;;;;;;8.05;82.93;99156.91;432394;1309;142837;-63
2021/11/20 22:18:42;;;;;;;11.20;8.80;;;;;;;7.96;82.85;99150.02;424157;1312;142032;-60
2021/11/20 22:28:49;;;;;;;10.20;8.80;;;;;;;7.86;82.93;99138.18;423831;1309;142662;-59
2021/11/20 22:38:55;;;;;;;12.80;9.10;;;;;;;7.78;83.15;99125.42;427248;1312;142078;-60
2021/11/20 22:49:01;;;;;;;11.30;7.40;;;;;;;7.74;82.95;99112.95;434941;1312;142182;-63
2021/11/20 22:59:07;;;;;;;10.10;8.10;;;;;;;7.67;83.03;99098.55;433528;1307;142454;-62
2021/11/20 23:09:13;;;;;;;10.10;8.30;;;;;;;7.62;83.07;99083.00;429174;1312;142579;-61
2021/11/20 23:19:20;;;;;;;9.70;7.80;;;;;;;7.57;82.73;99078.41;419543;1312;141450;-70
2021/11/20 23:29:26;;;;;;;8.60;7.60;;;;;;;7.53;83.05;99071.70;431039;1312;140910;-64
2021/11/20 23:39:32;;;;;;;12.70;8.60;;;;;;;7.50;83.03;99056.52;426112;1312;141850;-63
2021/11/20 23:49:38;;;;;;;14.60;9.80;;;;;;;7.46;82.81;99041.45;430725;1312;142329;-63
2021/11/20 23:59:44;;;;;;;11.40;8.40;;;;;;;7.40;82.80;99032.54;420553;1310;141647;-63
